首页
METAR-TAF:

METAR-TAF

机场 :

大邱國際機場

大邱廣域, 大韩民国

纬度: 35-54N, 经度: 128-39E, 海拔: 35米

当前天气观测

该预报发布于19分钟前的11:33 UTC
风速3节,风向
温度 24°C
湿度 74%
气压 1002 hPa
能见度10公里或以上
阴天层高于2500英尺
小雨

METAR: RKTN 261133Z 18003KT 9999 -RA OVC025 24/19 Q1002 RMK CIG025

时间: 20:52 (11:52 UTC)

预报

该预报发布于52分钟前的11:00 UTC
预报有效从26日的 12点(UTC)到 27日的 18点(UTC)
风速6节,风向南转南东
能见度10公里或以上
多云层高于2500英尺
成为
从 26日的 12点(UTC)到 26日的 13点(UTC)
风速8节,风向南转南东
能見度: 4800
散云层高于1500英尺
多云层高于2500英尺
小雨, 轻雾
成为
从 26日的 14点(UTC)到 26日的 15点(UTC)
能見度: 3200
多云层高于1500英尺
阴天层高于2500英尺
成为
从 26日的 21点(UTC)到 26日的 22点(UTC)
风速6节,风向南转南东
能見度: 4800
散云层高于1500英尺
多云层高于3000英尺
轻雾,

TAF: RKTN 261100Z 2612/2718 15006KT 9999 BKN025 TN19/2621Z TX26/2706Z BECMG 2612/2613 15008KT 4800 -RA BR SCT015 BKN025 BECMG 2614/2615 3200 BKN015 OVC025 BECMG 2621/2622 15006KT 4800 BR SCT015 BKN030

超过4000个机场的气象观测和天气预报(METAR&TAF报告)。

可查询的气象台以黄色和红色小点在地图上表示。

将鼠标移到小点上方,可查看气象台名称。

然后点击查看天气观测和预报。

如需切换地图:点击带黑十字的绿色按钮放大地图;点击带横线的绿色按钮缩小地图;或者点击绿色箭头查看邻近地区的地图。


METAR-TAF: